sensor_id;sensor_type;location;lat;lon;timestamp;P1;durP1;ratioP1;P2;durP2;ratioP2
1306;SDS011;646;48.696;9.114;2022-09-24T00:00:51;5.63;;;5.10;;
1306;SDS011;646;48.696;9.114;2022-09-24T00:03:18;6.37;;;5.87;;
1306;SDS011;646;48.696;9.114;2022-09-24T00:05:44;6.35;;;5.85;;
1306;SDS011;646;48.696;9.114;2022-09-24T00:08:11;6.00;;;5.60;;
1306;SDS011;646;48.696;9.114;2022-09-24T00:10:40;6.00;;;5.45;;
1306;SDS011;646;48.696;9.114;2022-09-24T00:13:09;7.13;;;6.55;;
1306;SDS011;646;48.696;9.114;2022-09-24T00:15:38;5.30;;;4.88;;
1306;SDS011;646;48.696;9.114;2022-09-24T00:18:06;6.03;;;5.50;;
1306;SDS011;646;48.696;9.114;2022-09-24T00:20:32;6.13;;;5.63;;
1306;SDS011;646;48.696;9.114;2022-09-24T00:22:59;6.70;;;6.20;;
1306;SDS011;646;48.696;9.114;2022-09-24T00:25:25;6.88;;;6.07;;
1306;SDS011;646;48.696;9.114;2022-09-24T00:28:10;6.45;;;5.95;;
1306;SDS011;646;48.696;9.114;2022-09-24T00:30:37;6.50;;;6.00;;
1306;SDS011;646;48.696;9.114;2022-09-24T00:33:03;6.75;;;6.15;;
1306;SDS011;646;48.696;9.114;2022-09-24T00:35:33;6.33;;;5.80;;
1306;SDS011;646;48.696;9.114;2022-09-24T00:37:59;6.00;;;5.50;;
1306;SDS011;646;48.696;9.114;2022-09-24T00:40:28;5.83;;;5.33;;
1306;SDS011;646;48.696;9.114;2022-09-24T00:42:55;6.28;;;5.78;;
1306;SDS011;646;48.696;9.114;2022-09-24T00:45:21;5.73;;;5.33;;
1306;SDS011;646;48.696;9.114;2022-09-24T00:47:47;6.18;;;5.32;;
1306;SDS011;646;48.696;9.114;2022-09-24T00:50:32;6.65;;;6.05;;
1306;SDS011;646;48.696;9.114;2022-09-24T00:53:09;6.50;;;5.90;;
1306;SDS011;646;48.696;9.114;2022-09-24T00:55:38;6.45;;;5.95;;
1306;SDS011;646;48.696;9.114;2022-09-24T00:58:07;7.18;;;5.78;;
1306;SDS011;646;48.696;9.114;2022-09-24T01:00:35;5.95;;;5.45;;
1306;SDS011;646;48.696;9.114;2022-09-24T01:03:04;6.60;;;5.90;;
1306;SDS011;646;48.696;9.114;2022-09-24T01:05:35;6.00;;;5.50;;
1306;SDS011;646;48.696;9.114;2022-09-24T01:08:02;6.30;;;5.80;;
1306;SDS011;646;48.696;9.114;2022-09-24T01:13:16;7.15;;;6.45;;
1306;SDS011;646;48.696;9.114;2022-09-24T01:18:48;6.90;;;5.82;;
1306;SDS011;646;48.696;9.114;2022-09-24T01:21:41;6.35;;;5.75;;
1306;SDS011;646;48.696;9.114;2022-09-24T01:24:23;5.93;;;5.43;;
1306;SDS011;646;48.696;9.114;2022-09-24T01:27:34;5.80;;;5.32;;
1306;SDS011;646;48.696;9.114;2022-09-24T01:30:09;6.85;;;6.25;;
1306;SDS011;646;48.696;9.114;2022-09-24T01:32:39;6.25;;;5.75;;
1306;SDS011;646;48.696;9.114;2022-09-24T01:37:54;7.03;;;6.32;;
1306;SDS011;646;48.696;9.114;2022-09-24T01:40:24;7.82;;;5.90;;
1306;SDS011;646;48.696;9.114;2022-09-24T01:42:51;6.38;;;5.78;;
1306;SDS011;646;48.696;9.114;2022-09-24T01:45:18;7.72;;;6.93;;
1306;SDS011;646;48.696;9.114;2022-09-24T01:47:44;6.72;;;6.15;;
1306;SDS011;646;48.696;9.114;2022-09-24T01:50:11;6.45;;;5.85;;
1306;SDS011;646;48.696;9.114;2022-09-24T01:52:41;6.35;;;5.82;;
1306;SDS011;646;48.696;9.114;2022-09-24T01:55:29;6.50;;;5.95;;
1306;SDS011;646;48.696;9.114;2022-09-24T01:58:13;6.18;;;5.57;;
1306;SDS011;646;48.696;9.114;2022-09-24T02:00:43;6.38;;;5.70;;
1306;SDS011;646;48.696;9.114;2022-09-24T02:03:18;5.97;;;5.47;;
1306;SDS011;646;48.696;9.114;2022-09-24T02:05:50;6.00;;;5.57;;
1306;SDS011;646;48.696;9.114;2022-09-24T02:08:25;6.13;;;5.57;;
1306;SDS011;646;48.696;9.114;2022-09-24T02:10:56;6.13;;;5.65;;
1306;SDS011;646;48.696;9.114;2022-09-24T02:13:30;6.65;;;6.00;;
1306;SDS011;646;48.696;9.114;2022-09-24T02:16:04;6.05;;;5.55;;
1306;SDS011;646;48.696;9.114;2022-09-24T02:18:33;6.22;;;5.72;;
1306;SDS011;646;48.696;9.114;2022-09-24T02:21:03;6.43;;;5.82;;
1306;SDS011;646;48.696;9.114;2022-09-24T02:23:32;6.18;;;5.65;;
1306;SDS011;646;48.696;9.114;2022-09-24T02:26:03;6.75;;;6.15;;
1306;SDS011;646;48.696;9.114;2022-09-24T02:28:30;7.00;;;6.35;;
1306;SDS011;646;48.696;9.114;2022-09-24T02:33:38;6.93;;;6.43;;
1306;SDS011;646;48.696;9.114;2022-09-24T02:36:27;8.10;;;7.30;;
1306;SDS011;646;48.696;9.114;2022-09-24T02:38:53;7.63;;;6.93;;
1306;SDS011;646;48.696;9.114;2022-09-24T02:41:18;7.70;;;7.10;;
1306;SDS011;646;48.696;9.114;2022-09-24T02:43:47;8.18;;;7.47;;
1306;SDS011;646;48.696;9.114;2022-09-24T02:46:13;7.57;;;6.97;;
1306;SDS011;646;48.696;9.114;2022-09-24T02:48:39;7.90;;;7.30;;
1306;SDS011;646;48.696;9.114;2022-09-24T02:51:05;8.47;;;7.37;;
1306;SDS011;646;48.696;9.114;2022-09-24T02:53:31;7.63;;;6.93;;
1306;SDS011;646;48.696;9.114;2022-09-24T02:55:57;7.72;;;7.03;;
1306;SDS011;646;48.696;9.114;2022-09-24T02:58:26;7.90;;;7.20;;
1306;SDS011;646;48.696;9.114;2022-09-24T03:00:52;8.10;;;7.38;;
1306;SDS011;646;48.696;9.114;2022-09-24T03:03:20;7.90;;;7.10;;
1306;SDS011;646;48.696;9.114;2022-09-24T03:05:47;8.60;;;7.82;;
1306;SDS011;646;48.696;9.114;2022-09-24T03:08:12;6.70;;;6.10;;
1306;SDS011;646;48.696;9.114;2022-09-24T03:10:38;7.67;;;7.00;;
1306;SDS011;646;48.696;9.114;2022-09-24T03:13:03;7.60;;;6.90;;
1306;SDS011;646;48.696;9.114;2022-09-24T03:15:29;7.33;;;6.63;;
1306;SDS011;646;48.696;9.114;2022-09-24T03:17:55;7.00;;;6.40;;
1306;SDS011;646;48.696;9.114;2022-09-24T03:20:20;7.37;;;6.70;;
1306;SDS011;646;48.696;9.114;2022-09-24T03:22:51;8.10;;;7.40;;
1306;SDS011;646;48.696;9.114;2022-09-24T03:25:17;7.75;;;6.97;;
1306;SDS011;646;48.696;9.114;2022-09-24T03:27:44;8.02;;;7.30;;
1306;SDS011;646;48.696;9.114;2022-09-24T03:30:11;8.00;;;7.38;;
1306;SDS011;646;48.696;9.114;2022-09-24T03:32:55;7.40;;;6.70;;
1306;SDS011;646;48.696;9.114;2022-09-24T03:35:21;6.00;;;5.50;;
1306;SDS011;646;48.696;9.114;2022-09-24T03:37:48;7.68;;;7.00;;
1306;SDS011;646;48.696;9.114;2022-09-24T03:40:13;7.30;;;6.70;;
1306;SDS011;646;48.696;9.114;2022-09-24T03:42:39;6.43;;;5.93;;
1306;SDS011;646;48.696;9.114;2022-09-24T03:45:04;8.37;;;7.57;;
1306;SDS011;646;48.696;9.114;2022-09-24T03:47:31;7.43;;;6.78;;
1306;SDS011;646;48.696;9.114;2022-09-24T03:49:57;7.75;;;7.05;;
1306;SDS011;646;48.696;9.114;2022-09-24T03:52:22;7.10;;;6.53;;
1306;SDS011;646;48.696;9.114;2022-09-24T03:54:48;7.37;;;6.67;;
1306;SDS011;646;48.696;9.114;2022-09-24T03:57:14;7.00;;;6.50;;
1306;SDS011;646;48.696;9.114;2022-09-24T03:59:43;7.13;;;6.53;;
1306;SDS011;646;48.696;9.114;2022-09-24T04:02:09;7.50;;;6.70;;
1306;SDS011;646;48.696;9.114;2022-09-24T04:04:35;7.63;;;6.95;;
1306;SDS011;646;48.696;9.114;2022-09-24T04:07:01;8.20;;;7.53;;
1306;SDS011;646;48.696;9.114;2022-09-24T04:09:27;9.50;;;8.10;;
1306;SDS011;646;48.696;9.114;2022-09-24T04:11:53;9.87;;;8.97;;
1306;SDS011;646;48.696;9.114;2022-09-24T04:14:18;9.00;;;8.20;;
1306;SDS011;646;48.696;9.114;2022-09-24T04:16:44;8.47;;;7.77;;
1306;SDS011;646;48.696;9.114;2022-09-24T04:19:11;9.03;;;8.23;;
1306;SDS011;646;48.696;9.114;2022-09-24T04:21:37;8.25;;;7.55;;
1306;SDS011;646;48.696;9.114;2022-09-24T04:24:03;7.63;;;6.93;;
1306;SDS011;646;48.696;9.114;2022-09-24T04:26:28;8.20;;;7.50;;
1306;SDS011;646;48.696;9.114;2022-09-24T04:28:54;8.87;;;8.07;;
1306;SDS011;646;48.696;9.114;2022-09-24T04:31:23;7.95;;;7.25;;
1306;SDS011;646;48.696;9.114;2022-09-24T04:33:50;8.40;;;7.70;;
1306;SDS011;646;48.696;9.114;2022-09-24T04:36:17;8.05;;;7.30;;
1306;SDS011;646;48.696;9.114;2022-09-24T04:38:42;8.73;;;6.93;;
1306;SDS011;646;48.696;9.114;2022-09-24T04:41:10;7.57;;;6.88;;
1306;SDS011;646;48.696;9.114;2022-09-24T04:43:36;7.95;;;7.35;;
1306;SDS011;646;48.696;9.114;2022-09-24T04:46:02;7.90;;;7.30;;
1306;SDS011;646;48.696;9.114;2022-09-24T04:48:28;7.77;;;7.07;;
1306;SDS011;646;48.696;9.114;2022-09-24T04:50:54;7.32;;;6.72;;
1306;SDS011;646;48.696;9.114;2022-09-24T04:53:19;8.77;;;7.90;;
1306;SDS011;646;48.696;9.114;2022-09-24T04:55:45;7.53;;;6.93;;
1306;SDS011;646;48.696;9.114;2022-09-24T04:58:11;7.60;;;6.80;;
1306;SDS011;646;48.696;9.114;2022-09-24T05:00:37;8.23;;;7.43;;
1306;SDS011;646;48.696;9.114;2022-09-24T05:03:02;7.47;;;6.90;;
1306;SDS011;646;48.696;9.114;2022-09-24T05:05:28;8.10;;;7.40;;
1306;SDS011;646;48.696;9.114;2022-09-24T05:07:55;7.40;;;6.80;;
1306;SDS011;646;48.696;9.114;2022-09-24T05:10:22;7.30;;;6.65;;
1306;SDS011;646;48.696;9.114;2022-09-24T05:12:48;7.70;;;6.90;;
1306;SDS011;646;48.696;9.114;2022-09-24T05:15:14;7.27;;;6.57;;
1306;SDS011;646;48.696;9.114;2022-09-24T05:17:40;7.17;;;6.40;;
1306;SDS011;646;48.696;9.114;2022-09-24T05:20:06;7.03;;;6.50;;
1306;SDS011;646;48.696;9.114;2022-09-24T05:22:33;7.82;;;7.22;;
1306;SDS011;646;48.696;9.114;2022-09-24T05:25:00;7.82;;;7.03;;
1306;SDS011;646;48.696;9.114;2022-09-24T05:27:25;8.30;;;6.97;;
1306;SDS011;646;48.696;9.114;2022-09-24T05:29:51;8.13;;;7.43;;
1306;SDS011;646;48.696;9.114;2022-09-24T05:32:18;7.87;;;7.17;;
1306;SDS011;646;48.696;9.114;2022-09-24T05:34:44;8.48;;;7.68;;
1306;SDS011;646;48.696;9.114;2022-09-24T05:37:11;9.18;;;8.27;;
1306;SDS011;646;48.696;9.114;2022-09-24T05:39:37;8.52;;;7.80;;
1306;SDS011;646;48.696;9.114;2022-09-24T05:42:03;8.20;;;7.50;;
1306;SDS011;646;48.696;9.114;2022-09-24T05:44:29;8.60;;;7.90;;
1306;SDS011;646;48.696;9.114;2022-09-24T05:46:55;8.68;;;7.97;;
1306;SDS011;646;48.696;9.114;2022-09-24T05:49:21;8.07;;;7.47;;
1306;SDS011;646;48.696;9.114;2022-09-24T05:51:47;8.93;;;7.23;;
1306;SDS011;646;48.696;9.114;2022-09-24T05:54:14;8.85;;;8.05;;
1306;SDS011;646;48.696;9.114;2022-09-24T05:56:40;8.50;;;7.80;;
1306;SDS011;646;48.696;9.114;2022-09-24T05:59:05;9.90;;;9.17;;
1306;SDS011;646;48.696;9.114;2022-09-24T06:01:31;10.30;;;9.30;;
1306;SDS011;646;48.696;9.114;2022-09-24T06:03:57;10.23;;;9.37;;
1306;SDS011;646;48.696;9.114;2022-09-24T06:06:25;10.10;;;9.30;;
1306;SDS011;646;48.696;9.114;2022-09-24T06:08:51;10.05;;;9.25;;
1306;SDS011;646;48.696;9.114;2022-09-24T06:11:17;9.93;;;9.03;;
1306;SDS011;646;48.696;9.114;2022-09-24T06:13:43;9.47;;;8.73;;
1306;SDS011;646;48.696;9.114;2022-09-24T06:16:09;9.50;;;8.50;;
1306;SDS011;646;48.696;9.114;2022-09-24T06:18:37;10.80;;;9.80;;
1306;SDS011;646;48.696;9.114;2022-09-24T06:21:05;10.05;;;9.27;;
1306;SDS011;646;48.696;9.114;2022-09-24T06:23:33;9.00;;;8.30;;
1306;SDS011;646;48.696;9.114;2022-09-24T06:25:59;12.87;;;11.57;;
1306;SDS011;646;48.696;9.114;2022-09-24T06:28:24;12.60;;;11.43;;
1306;SDS011;646;48.696;9.114;2022-09-24T06:30:50;10.67;;;9.77;;
1306;SDS011;646;48.696;9.114;2022-09-24T06:33:16;10.20;;;9.40;;
1306;SDS011;646;48.696;9.114;2022-09-24T06:35:42;11.67;;;10.77;;
1306;SDS011;646;48.696;9.114;2022-09-24T06:38:12;9.43;;;8.73;;
1306;SDS011;646;48.696;9.114;2022-09-24T06:40:40;8.43;;;7.80;;
1306;SDS011;646;48.696;9.114;2022-09-24T06:43:06;8.47;;;7.77;;
1306;SDS011;646;48.696;9.114;2022-09-24T06:45:33;8.57;;;7.97;;
1306;SDS011;646;48.696;9.114;2022-09-24T06:48:00;8.80;;;8.00;;
1306;SDS011;646;48.696;9.114;2022-09-24T06:50:27;9.70;;;8.77;;
1306;SDS011;646;48.696;9.114;2022-09-24T06:52:54;8.07;;;7.40;;
1306;SDS011;646;48.696;9.114;2022-09-24T06:55:21;9.20;;;8.37;;
1306;SDS011;646;48.696;9.114;2022-09-24T06:57:47;9.20;;;8.50;;
1306;SDS011;646;48.696;9.114;2022-09-24T07:00:12;9.17;;;8.47;;
1306;SDS011;646;48.696;9.114;2022-09-24T07:02:39;9.07;;;8.27;;
1306;SDS011;646;48.696;9.114;2022-09-24T07:05:05;8.30;;;7.70;;
1306;SDS011;646;48.696;9.114;2022-09-24T07:07:32;9.07;;;8.27;;
1306;SDS011;646;48.696;9.114;2022-09-24T07:09:58;7.90;;;7.20;;
1306;SDS011;646;48.696;9.114;2022-09-24T07:12:28;7.83;;;7.23;;
1306;SDS011;646;48.696;9.114;2022-09-24T07:14:55;8.83;;;8.13;;
1306;SDS011;646;48.696;9.114;2022-09-24T07:17:21;8.77;;;7.93;;
1306;SDS011;646;48.696;9.114;2022-09-24T07:19:47;8.80;;;8.00;;
1306;SDS011;646;48.696;9.114;2022-09-24T07:22:13;8.20;;;7.60;;
1306;SDS011;646;48.696;9.114;2022-09-24T07:24:38;8.70;;;7.90;;
1306;SDS011;646;48.696;9.114;2022-09-24T07:27:04;7.67;;;7.13;;
1306;SDS011;646;48.696;9.114;2022-09-24T07:29:42;8.00;;;7.20;;
1306;SDS011;646;48.696;9.114;2022-09-24T07:32:25;8.63;;;7.93;;
1306;SDS011;646;48.696;9.114;2022-09-24T07:34:51;8.60;;;7.90;;
1306;SDS011;646;48.696;9.114;2022-09-24T07:37:18;10.30;;;9.40;;
1306;SDS011;646;48.696;9.114;2022-09-24T07:39:44;12.17;;;11.17;;
1306;SDS011;646;48.696;9.114;2022-09-24T07:42:09;11.83;;;10.73;;
1306;SDS011;646;48.696;9.114;2022-09-24T07:44:35;10.00;;;9.13;;
1306;SDS011;646;48.696;9.114;2022-09-24T07:47:01;10.27;;;9.37;;
1306;SDS011;646;48.696;9.114;2022-09-24T07:49:28;9.57;;;8.77;;
1306;SDS011;646;48.696;9.114;2022-09-24T07:51:56;9.27;;;8.40;;
1306;SDS011;646;48.696;9.114;2022-09-24T07:54:21;9.53;;;8.03;;
1306;SDS011;646;48.696;9.114;2022-09-24T07:56:47;7.93;;;7.30;;
1306;SDS011;646;48.696;9.114;2022-09-24T07:59:12;8.17;;;7.57;;
1306;SDS011;646;48.696;9.114;2022-09-24T08:01:38;8.20;;;7.60;;
1306;SDS011;646;48.696;9.114;2022-09-24T08:04:04;8.10;;;7.40;;
1306;SDS011;646;48.696;9.114;2022-09-24T08:06:32;7.47;;;6.90;;
1306;SDS011;646;48.696;9.114;2022-09-24T08:12:27;7.50;;;6.90;;
1306;SDS011;646;48.696;9.114;2022-09-24T08:14:52;7.00;;;6.50;;
1306;SDS011;646;48.696;9.114;2022-09-24T08:17:18;7.93;;;7.33;;
1306;SDS011;646;48.696;9.114;2022-09-24T08:19:44;7.30;;;6.70;;
1306;SDS011;646;48.696;9.114;2022-09-24T08:22:10;6.90;;;6.40;;
1306;SDS011;646;48.696;9.114;2022-09-24T08:24:38;6.80;;;6.30;;
1306;SDS011;646;48.696;9.114;2022-09-24T08:27:04;6.30;;;5.80;;
1306;SDS011;646;48.696;9.114;2022-09-24T08:29:29;6.43;;;5.93;;
1306;SDS011;646;48.696;9.114;2022-09-24T08:31:55;11.33;;;10.23;;
1306;SDS011;646;48.696;9.114;2022-09-24T08:34:20;9.97;;;9.17;;
1306;SDS011;646;48.696;9.114;2022-09-24T08:36:46;8.13;;;7.43;;
1306;SDS011;646;48.696;9.114;2022-09-24T08:39:12;7.93;;;6.07;;
1306;SDS011;646;48.696;9.114;2022-09-24T08:41:43;6.53;;;6.03;;
1306;SDS011;646;48.696;9.114;2022-09-24T08:44:25;6.93;;;6.23;;
1306;SDS011;646;48.696;9.114;2022-09-24T08:47:27;6.30;;;5.80;;
1306;SDS011;646;48.696;9.114;2022-09-24T08:58:32;9.27;;;8.40;;
1306;SDS011;646;48.696;9.114;2022-09-24T09:04:26;13.27;;;11.97;;
1306;SDS011;646;48.696;9.114;2022-09-24T09:13:00;13.23;;;11.87;;
1306;SDS011;646;48.696;9.114;2022-09-24T09:15:39;10.20;;;9.30;;
1306;SDS011;646;48.696;9.114;2022-09-24T09:18:13;10.60;;;9.70;;
1306;SDS011;646;48.696;9.114;2022-09-24T09:20:45;10.13;;;8.90;;
1306;SDS011;646;48.696;9.114;2022-09-24T09:23:25;10.30;;;9.37;;
1306;SDS011;646;48.696;9.114;2022-09-24T09:25:58;10.73;;;9.73;;
1306;SDS011;646;48.696;9.114;2022-09-24T09:28:25;9.60;;;8.70;;
1306;SDS011;646;48.696;9.114;2022-09-24T09:45:00;8.20;;;7.40;;
1306;SDS011;646;48.696;9.114;2022-09-24T09:52:52;7.30;;;6.70;;
1306;SDS011;646;48.696;9.114;2022-09-24T09:55:28;8.40;;;7.30;;
1306;SDS011;646;48.696;9.114;2022-09-24T09:58:08;9.97;;;9.07;;
1306;SDS011;646;48.696;9.114;2022-09-24T10:00:46;9.50;;;8.60;;
1306;SDS011;646;48.696;9.114;2022-09-24T10:03:23;8.37;;;7.53;;
1306;SDS011;646;48.696;9.114;2022-09-24T10:05:56;7.30;;;6.60;;
1306;SDS011;646;48.696;9.114;2022-09-24T10:08:23;6.83;;;6.23;;
1306;SDS011;646;48.696;9.114;2022-09-24T10:10:59;6.30;;;5.70;;
1306;SDS011;646;48.696;9.114;2022-09-24T10:13:27;6.17;;;5.40;;
1306;SDS011;646;48.696;9.114;2022-09-24T10:15:59;5.23;;;4.83;;
1306;SDS011;646;48.696;9.114;2022-09-24T10:19:11;6.00;;;5.50;;
1306;SDS011;646;48.696;9.114;2022-09-24T10:21:33;5.00;;;4.60;;
1306;SDS011;646;48.696;9.114;2022-09-24T10:24:05;5.10;;;4.77;;
1306;SDS011;646;48.696;9.114;2022-09-24T10:26:37;5.30;;;4.97;;
1306;SDS011;646;48.696;9.114;2022-09-24T10:29:04;5.37;;;4.87;;
1306;SDS011;646;48.696;9.114;2022-09-24T10:31:54;5.17;;;4.73;;
1306;SDS011;646;48.696;9.114;2022-09-24T10:34:24;6.17;;;5.73;;
1306;SDS011;646;48.696;9.114;2022-09-24T10:36:56;5.40;;;4.90;;
1306;SDS011;646;48.696;9.114;2022-09-24T10:39:24;4.87;;;4.57;;
1306;SDS011;646;48.696;9.114;2022-09-24T10:41:51;5.23;;;4.80;;
1306;SDS011;646;48.696;9.114;2022-09-24T10:44:20;9.00;;;6.60;;
1306;SDS011;646;48.696;9.114;2022-09-24T10:47:04;7.00;;;6.40;;
1306;SDS011;646;48.696;9.114;2022-09-24T10:49:58;5.13;;;4.73;;
1306;SDS011;646;48.696;9.114;2022-09-24T10:52:46;4.93;;;4.53;;
1306;SDS011;646;48.696;9.114;2022-09-24T11:00:39;4.87;;;4.37;;
1306;SDS011;646;48.696;9.114;2022-09-24T11:16:59;4.73;;;4.43;;
1306;SDS011;646;48.696;9.114;2022-09-24T11:19:44;5.77;;;5.17;;
1306;SDS011;646;48.696;9.114;2022-09-24T11:28:02;6.63;;;6.03;;
1306;SDS011;646;48.696;9.114;2022-09-24T11:36:46;6.27;;;5.80;;
1306;SDS011;646;48.696;9.114;2022-09-24T11:50:16;5.73;;;5.30;;
1306;SDS011;646;48.696;9.114;2022-09-24T11:52:53;5.80;;;5.30;;
1306;SDS011;646;48.696;9.114;2022-09-24T11:55:30;5.70;;;5.30;;
1306;SDS011;646;48.696;9.114;2022-09-24T11:58:04;5.70;;;5.30;;
1306;SDS011;646;48.696;9.114;2022-09-24T12:00:39;5.40;;;5.00;;
1306;SDS011;646;48.696;9.114;2022-09-24T12:03:41;5.83;;;5.33;;
1306;SDS011;646;48.696;9.114;2022-09-24T12:06:10;5.17;;;4.77;;
1306;SDS011;646;48.696;9.114;2022-09-24T12:08:45;5.80;;;5.40;;
1306;SDS011;646;48.696;9.114;2022-09-24T12:11:37;5.73;;;5.33;;
1306;SDS011;646;48.696;9.114;2022-09-24T12:14:17;6.03;;;5.53;;
1306;SDS011;646;48.696;9.114;2022-09-24T12:16:51;5.73;;;5.33;;
1306;SDS011;646;48.696;9.114;2022-09-24T12:19:26;6.40;;;5.90;;
1306;SDS011;646;48.696;9.114;2022-09-24T12:22:07;6.13;;;5.63;;
1306;SDS011;646;48.696;9.114;2022-09-24T12:25:09;5.90;;;5.50;;
1306;SDS011;646;48.696;9.114;2022-09-24T12:27:31;5.80;;;5.40;;
1306;SDS011;646;48.696;9.114;2022-09-24T12:36:00;5.70;;;5.20;;
1306;SDS011;646;48.696;9.114;2022-09-24T12:38:46;5.73;;;5.20;;
1306;SDS011;646;48.696;9.114;2022-09-24T12:51:50;4.80;;;4.50;;
1306;SDS011;646;48.696;9.114;2022-09-24T12:54:33;5.37;;;5.00;;
1306;SDS011;646;48.696;9.114;2022-09-24T12:59:57;5.30;;;4.90;;
1306;SDS011;646;48.696;9.114;2022-09-24T13:02:25;6.67;;;5.80;;
1306;SDS011;646;48.696;9.114;2022-09-24T13:05:16;5.63;;;5.13;;
1306;SDS011;646;48.696;9.114;2022-09-24T13:08:02;6.70;;;6.10;;
1306;SDS011;646;48.696;9.114;2022-09-24T13:10:55;7.10;;;6.40;;
1306;SDS011;646;48.696;9.114;2022-09-24T13:13:26;7.70;;;6.90;;
1306;SDS011;646;48.696;9.114;2022-09-24T13:15:59;7.60;;;6.20;;
1306;SDS011;646;48.696;9.114;2022-09-24T13:18:50;6.63;;;5.90;;
1306;SDS011;646;48.696;9.114;2022-09-24T13:21:20;6.57;;;6.07;;
1306;SDS011;646;48.696;9.114;2022-09-24T13:23:49;5.27;;;4.87;;
1306;SDS011;646;48.696;9.114;2022-09-24T13:26:30;4.70;;;4.40;;
1306;SDS011;646;48.696;9.114;2022-09-24T13:29:21;5.40;;;5.00;;
1306;SDS011;646;48.696;9.114;2022-09-24T13:31:52;5.50;;;5.10;;
1306;SDS011;646;48.696;9.114;2022-09-24T13:34:25;5.43;;;5.03;;
1306;SDS011;646;48.696;9.114;2022-09-24T13:39:58;5.43;;;5.03;;
1306;SDS011;646;48.696;9.114;2022-09-24T13:42:50;4.97;;;4.57;;
1306;SDS011;646;48.696;9.114;2022-09-24T13:45:22;5.53;;;5.03;;
1306;SDS011;646;48.696;9.114;2022-09-24T13:50:26;6.43;;;5.93;;
1306;SDS011;646;48.696;9.114;2022-09-24T13:53:00;5.60;;;5.20;;
1306;SDS011;646;48.696;9.114;2022-09-24T13:55:53;5.20;;;4.80;;
1306;SDS011;646;48.696;9.114;2022-09-24T13:58:25;6.10;;;5.60;;
1306;SDS011;646;48.696;9.114;2022-09-24T14:00:52;5.30;;;4.90;;
1306;SDS011;646;48.696;9.114;2022-09-24T14:05:46;5.97;;;5.40;;
1306;SDS011;646;48.696;9.114;2022-09-24T14:08:14;5.47;;;5.07;;
1306;SDS011;646;48.696;9.114;2022-09-24T14:10:42;5.50;;;5.10;;
1306;SDS011;646;48.696;9.114;2022-09-24T14:13:18;6.10;;;5.70;;
1306;SDS011;646;48.696;9.114;2022-09-24T14:18:19;5.87;;;5.47;;
1306;SDS011;646;48.696;9.114;2022-09-24T14:20:44;6.77;;;6.27;;
1306;SDS011;646;48.696;9.114;2022-09-24T14:23:25;5.67;;;5.27;;
1306;SDS011;646;48.696;9.114;2022-09-24T14:25:57;6.03;;;5.50;;
1306;SDS011;646;48.696;9.114;2022-09-24T14:28:24;5.10;;;4.70;;
1306;SDS011;646;48.696;9.114;2022-09-24T14:30:53;5.00;;;4.70;;
1306;SDS011;646;48.696;9.114;2022-09-24T14:33:21;5.40;;;5.00;;
1306;SDS011;646;48.696;9.114;2022-09-24T14:35:50;5.30;;;4.80;;
1306;SDS011;646;48.696;9.114;2022-09-24T14:38:25;5.63;;;5.20;;
1306;SDS011;646;48.696;9.114;2022-09-24T14:41:04;5.27;;;4.90;;
1306;SDS011;646;48.696;9.114;2022-09-24T14:48:48;6.20;;;5.70;;
1306;SDS011;646;48.696;9.114;2022-09-24T14:51:24;7.10;;;6.43;;
1306;SDS011;646;48.696;9.114;2022-09-24T14:53:59;6.60;;;6.00;;
1306;SDS011;646;48.696;9.114;2022-09-24T14:56:31;6.37;;;5.97;;
1306;SDS011;646;48.696;9.114;2022-09-24T14:58:57;6.07;;;5.67;;
1306;SDS011;646;48.696;9.114;2022-09-24T15:01:28;7.37;;;6.77;;
1306;SDS011;646;48.696;9.114;2022-09-24T15:03:56;6.87;;;6.33;;
1306;SDS011;646;48.696;9.114;2022-09-24T15:06:30;6.00;;;5.50;;
1306;SDS011;646;48.696;9.114;2022-09-24T15:09:01;6.70;;;6.20;;
1306;SDS011;646;48.696;9.114;2022-09-24T15:11:29;5.77;;;5.37;;
1306;SDS011;646;48.696;9.114;2022-09-24T15:14:02;5.50;;;5.10;;
1306;SDS011;646;48.696;9.114;2022-09-24T15:16:39;5.93;;;5.43;;
1306;SDS011;646;48.696;9.114;2022-09-24T15:21:31;6.97;;;6.43;;
1306;SDS011;646;48.696;9.114;2022-09-24T15:23:56;6.37;;;5.77;;
1306;SDS011;646;48.696;9.114;2022-09-24T15:26:23;6.90;;;6.23;;
1306;SDS011;646;48.696;9.114;2022-09-24T15:28:55;6.60;;;6.00;;
1306;SDS011;646;48.696;9.114;2022-09-24T15:31:21;5.77;;;5.37;;
1306;SDS011;646;48.696;9.114;2022-09-24T15:33:47;5.57;;;5.03;;
1306;SDS011;646;48.696;9.114;2022-09-24T15:36:12;5.17;;;4.77;;
1306;SDS011;646;48.696;9.114;2022-09-24T15:38:39;5.20;;;4.80;;
1306;SDS011;646;48.696;9.114;2022-09-24T15:41:05;5.73;;;5.27;;
1306;SDS011;646;48.696;9.114;2022-09-24T15:43:32;6.07;;;5.57;;
1306;SDS011;646;48.696;9.114;2022-09-24T15:45:58;5.80;;;5.40;;
1306;SDS011;646;48.696;9.114;2022-09-24T15:48:23;6.17;;;5.73;;
1306;SDS011;646;48.696;9.114;2022-09-24T15:50:49;5.40;;;4.90;;
1306;SDS011;646;48.696;9.114;2022-09-24T15:53:21;4.93;;;4.60;;
1306;SDS011;646;48.696;9.114;2022-09-24T15:55:51;4.93;;;4.53;;
1306;SDS011;646;48.696;9.114;2022-09-24T15:58:19;4.80;;;4.43;;
1306;SDS011;646;48.696;9.114;2022-09-24T16:00:45;5.13;;;4.73;;
1306;SDS011;646;48.696;9.114;2022-09-24T16:03:13;5.43;;;5.03;;
1306;SDS011;646;48.696;9.114;2022-09-24T16:05:46;5.53;;;5.13;;
1306;SDS011;646;48.696;9.114;2022-09-24T16:08:12;5.67;;;5.27;;
1306;SDS011;646;48.696;9.114;2022-09-24T16:10:38;5.83;;;5.43;;
1306;SDS011;646;48.696;9.114;2022-09-24T16:13:03;5.80;;;5.40;;
1306;SDS011;646;48.696;9.114;2022-09-24T16:15:29;6.60;;;6.10;;
1306;SDS011;646;48.696;9.114;2022-09-24T16:17:55;5.47;;;4.97;;
1306;SDS011;646;48.696;9.114;2022-09-24T16:20:20;6.03;;;5.43;;
1306;SDS011;646;48.696;9.114;2022-09-24T16:22:46;6.03;;;5.53;;
1306;SDS011;646;48.696;9.114;2022-09-24T16:25:11;10.70;;;9.80;;
1306;SDS011;646;48.696;9.114;2022-09-24T16:27:37;6.40;;;5.97;;
1306;SDS011;646;48.696;9.114;2022-09-24T16:30:03;7.27;;;6.67;;
1306;SDS011;646;48.696;9.114;2022-09-24T16:32:30;5.90;;;5.40;;
1306;SDS011;646;48.696;9.114;2022-09-24T16:34:56;5.87;;;5.37;;
1306;SDS011;646;48.696;9.114;2022-09-24T16:37:22;5.37;;;4.97;;
1306;SDS011;646;48.696;9.114;2022-09-24T16:39:47;5.40;;;5.00;;
1306;SDS011;646;48.696;9.114;2022-09-24T16:42:13;4.77;;;4.37;;
1306;SDS011;646;48.696;9.114;2022-09-24T16:44:38;5.17;;;4.60;;
1306;SDS011;646;48.696;9.114;2022-09-24T16:47:04;5.30;;;5.00;;
1306;SDS011;646;48.696;9.114;2022-09-24T16:49:29;6.00;;;5.50;;
1306;SDS011;646;48.696;9.114;2022-09-24T16:51:55;5.93;;;5.40;;
1306;SDS011;646;48.696;9.114;2022-09-24T16:54:21;4.70;;;4.30;;
1306;SDS011;646;48.696;9.114;2022-09-24T16:56:47;5.20;;;4.80;;
1306;SDS011;646;48.696;9.114;2022-09-24T16:59:14;6.00;;;5.50;;
1306;SDS011;646;48.696;9.114;2022-09-24T17:01:40;6.00;;;5.40;;
1306;SDS011;646;48.696;9.114;2022-09-24T17:04:06;6.53;;;5.90;;
1306;SDS011;646;48.696;9.114;2022-09-24T17:06:32;6.83;;;6.33;;
1306;SDS011;646;48.696;9.114;2022-09-24T17:08:58;5.83;;;5.33;;
1306;SDS011;646;48.696;9.114;2022-09-24T17:11:43;6.63;;;6.13;;
1306;SDS011;646;48.696;9.114;2022-09-24T17:14:12;6.40;;;5.90;;
1306;SDS011;646;48.696;9.114;2022-09-24T17:16:39;7.63;;;7.03;;
1306;SDS011;646;48.696;9.114;2022-09-24T17:19:05;11.30;;;10.40;;
1306;SDS011;646;48.696;9.114;2022-09-24T17:21:32;14.23;;;12.93;;
1306;SDS011;646;48.696;9.114;2022-09-24T17:23:58;15.63;;;14.23;;
1306;SDS011;646;48.696;9.114;2022-09-24T17:26:23;13.40;;;12.40;;
1306;SDS011;646;48.696;9.114;2022-09-24T17:28:51;13.20;;;12.20;;
1306;SDS011;646;48.696;9.114;2022-09-24T17:31:18;13.50;;;12.40;;
1306;SDS011;646;48.696;9.114;2022-09-24T17:33:45;13.90;;;12.80;;
1306;SDS011;646;48.696;9.114;2022-09-24T17:36:11;15.30;;;14.20;;
1306;SDS011;646;48.696;9.114;2022-09-24T17:38:39;15.43;;;14.23;;
1306;SDS011;646;48.696;9.114;2022-09-24T17:41:06;15.27;;;14.17;;
1306;SDS011;646;48.696;9.114;2022-09-24T17:43:34;13.87;;;12.83;;
1306;SDS011;646;48.696;9.114;2022-09-24T17:46:01;12.77;;;11.83;;
1306;SDS011;646;48.696;9.114;2022-09-24T17:48:27;10.80;;;10.00;;
1306;SDS011;646;48.696;9.114;2022-09-24T17:50:56;9.00;;;8.30;;
1306;SDS011;646;48.696;9.114;2022-09-24T17:53:24;8.00;;;7.30;;
1306;SDS011;646;48.696;9.114;2022-09-24T17:55:50;7.40;;;6.80;;